Time;durP1;ratioP1;P1;durP2;ratioP2;P2;SDS_P1;SDS_P2;PMS_P1;PMS_P2;Temp;Humidity;BMP_temperature;BMP_pressure;BME280_temperature;BME280_humidity;BME280_pressure;Samples;Min_cycle;Max_cycle;Signal;HPM_P1;HPM_P2
2022/09/09 00:01:26;;;;;;;0.80;0.55;;;19.40;99.90;;;;;;4953228;29;20193;-74
2022/09/09 00:04:15;;;;;;;0.82;0.60;;;19.40;99.90;;;;;;4934935;29;20177;-74
2022/09/09 00:07:09;;;;;;;4.07;1.00;;;19.30;99.90;;;;;;4948984;29;20205;-74
2022/09/09 00:09:46;;;;;;;1.30;0.60;;;19.30;99.90;;;;;;4931127;29;20174;-73
2022/09/09 00:12:17;;;;;;;1.42;0.60;;;19.30;99.90;;;;;;4946902;29;20177;-72
2022/09/09 00:15:05;;;;;;;1.42;0.50;;;19.20;99.90;;;;;;4952988;28;20209;-73
2022/09/09 00:17:55;;;;;;;1.00;0.60;;;19.20;99.90;;;;;;4928009;29;20189;-74
2022/09/09 00:20:33;;;;;;;1.60;0.70;;;19.20;99.90;;;;;;4940864;29;20181;-73
2022/09/09 00:23:19;;;;;;;2.83;0.90;;;19.10;99.90;;;;;;4954721;29;20173;-75
2022/09/09 00:26:16;;;;;;;1.75;0.70;;;19.10;99.90;;;;;;4933949;29;20204;-72
2022/09/09 00:28:52;;;;;;;2.40;0.75;;;19.00;99.90;;;;;;4938521;29;20216;-73
2022/09/09 00:31:27;;;;;;;1.30;0.60;;;19.00;99.90;;;;;;4938967;29;20183;-72
2022/09/09 00:33:58;;;;;;;2.72;0.90;;;19.00;99.90;;;;;;4934172;29;20181;-73
2022/09/09 00:36:28;;;;;;;2.65;1.00;;;19.00;99.90;;;;;;4938692;29;20204;-71
2022/09/09 00:39:00;;;;;;;1.70;0.73;;;19.00;99.90;;;;;;4953755;29;20190;-73
2022/09/09 00:41:44;;;;;;;2.65;0.90;;;18.90;99.90;;;;;;4935708;29;20186;-72
2022/09/09 00:44:17;;;;;;;1.15;0.70;;;18.90;99.90;;;;;;4949704;29;20208;-73
2022/09/09 00:47:04;;;;;;;2.55;0.98;;;18.90;99.90;;;;;;4938726;29;20185;-73
2022/09/09 00:49:56;;;;;;;2.35;0.60;;;18.90;99.90;;;;;;4938042;29;20181;-73
2022/09/09 00:52:50;;;;;;;1.10;0.77;;;18.80;99.90;;;;;;4911600;29;20245;-74
2022/09/09 00:55:28;;;;;;;3.85;0.95;;;18.80;99.90;;;;;;4948700;29;20293;-74
2022/09/09 00:57:54;;;;;;;1.55;0.63;;;18.80;99.90;;;;;;4935987;29;20204;-73
2022/09/09 01:00:35;;;;;;;2.20;0.77;;;18.80;99.90;;;;;;4937593;29;20205;-74
2022/09/09 01:03:33;;;;;;;2.00;0.98;;;18.70;99.90;;;;;;4938604;29;20227;-73
2022/09/09 01:06:12;;;;;;;1.67;0.70;;;18.70;99.90;;;;;;4943720;29;20202;-72
2022/09/09 01:09:15;;;;;;;1.92;0.70;;;18.70;99.90;;;;;;4945198;29;20170;-73
2022/09/09 01:11:49;;;;;;;2.45;0.77;;;18.70;99.90;;;;;;4922780;29;20375;-72
2022/09/09 01:14:36;;;;;;;2.70;0.90;;;18.60;99.90;;;;;;4943345;29;20200;-73
2022/09/09 01:17:28;;;;;;;1.95;0.88;;;18.60;99.90;;;;;;4953521;29;20205;-73
2022/09/09 01:20:20;;;;;;;1.65;0.80;;;18.60;99.90;;;;;;4952922;29;20205;-73
2022/09/09 01:23:03;;;;;;;1.35;1.15;;;18.60;99.90;;;;;;4938087;29;20205;-74
2022/09/09 01:25:49;;;;;;;2.78;1.20;;;18.60;99.90;;;;;;4938341;29;20169;-71
2022/09/09 01:28:21;;;;;;;3.10;1.00;;;18.60;99.90;;;;;;4944182;29;20192;-72
2022/09/09 01:30:52;;;;;;;1.52;0.80;;;18.60;99.90;;;;;;4945146;29;20200;-73
2022/09/09 01:33:18;;;;;;;1.88;0.90;;;18.60;99.90;;;;;;4941143;29;20265;-71
2022/09/09 01:36:54;;;;;;;2.13;0.82;;;18.60;99.90;;;;;;4927142;29;20209;-73
2022/09/09 01:39:23;;;;;;;2.35;1.00;;;18.60;99.90;;;;;;4827032;29;20287;-72
2022/09/09 01:41:51;;;;;;;1.25;0.68;;;18.60;99.90;;;;;;4864080;29;20196;-73
2022/09/09 01:44:18;;;;;;;2.22;0.90;;;18.60;99.90;;;;;;4902750;29;20185;-73
2022/09/09 01:46:43;;;;;;;1.38;0.68;;;18.60;99.90;;;;;;4932882;29;20249;-73
2022/09/09 01:49:12;;;;;;;2.20;0.90;;;18.60;99.90;;;;;;4954918;29;20189;-72
2022/09/09 01:51:41;;;;;;;2.22;1.00;;;18.60;99.90;;;;;;4956314;29;20185;-73
2022/09/09 01:54:07;;;;;;;2.05;0.80;;;18.60;99.90;;;;;;4941734;29;20201;-74
2022/09/09 01:56:43;;;;;;;2.33;0.90;;;18.60;99.90;;;;;;4961071;28;20180;-75
2022/09/09 01:59:26;;;;;;;3.00;0.98;;;18.60;99.90;;;;;;4925553;29;20193;-73
2022/09/09 02:01:57;;;;;;;1.70;0.80;;;18.60;99.90;;;;;;4947285;29;20188;-73
2022/09/09 02:04:39;;;;;;;2.55;0.80;;;18.70;99.90;;;;;;4937252;29;20181;-74
2022/09/09 02:07:14;;;;;;;0.90;0.60;;;18.70;99.90;;;;;;4940071;29;20248;-76
2022/09/09 02:09:46;;;;;;;2.45;1.00;;;18.70;99.90;;;;;;4948108;29;20219;-74
2022/09/09 02:12:19;;;;;;;3.97;1.10;;;18.70;99.90;;;;;;4943723;29;20177;-76
2022/09/09 02:14:59;;;;;;;1.80;1.00;;;18.70;99.90;;;;;;4922299;29;20285;-76
2022/09/09 02:17:36;;;;;;;1.50;0.80;;;18.70;99.90;;;;;;4935435;29;20212;-75
2022/09/09 02:20:09;;;;;;;1.60;0.77;;;18.70;99.90;;;;;;4944208;29;20209;-70
2022/09/09 02:22:39;;;;;;;4.13;0.90;;;18.70;99.90;;;;;;4964472;29;20289;-72
2022/09/09 02:25:08;;;;;;;3.67;0.90;;;18.70;99.90;;;;;;4945569;29;20178;-73
2022/09/09 02:27:35;;;;;;;1.13;0.85;;;18.70;99.90;;;;;;4945793;29;20214;-74
2022/09/09 02:30:03;;;;;;;2.85;0.82;;;18.80;99.90;;;;;;4944952;29;20229;-71
2022/09/09 02:32:33;;;;;;;2.47;0.90;;;18.80;99.90;;;;;;4940940;29;20240;-74
2022/09/09 02:35:08;;;;;;;2.70;0.90;;;18.80;99.90;;;;;;4951247;29;20209;-75
2022/09/09 02:37:37;;;;;;;2.35;0.90;;;18.80;99.90;;;;;;4956291;29;20188;-74
2022/09/09 02:40:08;;;;;;;1.80;0.80;;;18.80;99.90;;;;;;4938631;29;20182;-74
2022/09/09 02:42:43;;;;;;;2.90;0.85;;;18.80;99.90;;;;;;4931982;29;20185;-71
2022/09/09 02:45:11;;;;;;;2.45;0.80;;;18.90;99.90;;;;;;4959972;29;20192;-74
2022/09/09 02:47:52;;;;;;;3.65;1.17;;;18.80;99.90;;;;;;4958383;29;20202;-74
2022/09/09 02:50:33;;;;;;;1.67;0.70;;;18.90;99.90;;;;;;4938370;29;20181;-72
2022/09/09 02:53:02;;;;;;;1.23;0.63;;;18.90;99.90;;;;;;4935675;29;20296;-76
2022/09/09 02:55:42;;;;;;;2.70;0.80;;;18.90;99.90;;;;;;4955157;29;20256;-73
2022/09/09 02:58:12;;;;;;;1.75;0.90;;;18.90;99.90;;;;;;4956205;29;20181;-71
2022/09/09 03:00:39;;;;;;;1.95;0.70;;;18.90;99.90;;;;;;4938119;29;20250;-74
2022/09/09 03:03:09;;;;;;;2.05;0.85;;;18.90;99.90;;;;;;4935940;29;20181;-73
2022/09/09 03:05:38;;;;;;;4.35;1.05;;;18.90;99.90;;;;;;4961309;29;20182;-74
2022/09/09 03:08:05;;;;;;;1.33;0.75;;;18.90;99.90;;;;;;4941511;29;20205;-75
2022/09/09 03:10:31;;;;;;;2.95;0.77;;;18.90;99.90;;;;;;4939061;29;20190;-73
2022/09/09 03:12:59;;;;;;;1.67;0.77;;;19.00;99.90;;;;;;4977927;28;20206;-72
2022/09/09 03:15:28;;;;;;;4.70;0.95;;;19.00;99.90;;;;;;4962871;28;20208;-74
2022/09/09 03:17:55;;;;;;;1.20;0.75;;;19.00;99.90;;;;;;4945752;29;20178;-72
2022/09/09 03:20:20;;;;;;;1.55;0.75;;;19.00;99.90;;;;;;4954994;29;20263;-74
2022/09/09 03:22:46;;;;;;;4.07;1.10;;;19.00;99.90;;;;;;4943660;29;20280;-74
2022/09/09 03:25:14;;;;;;;1.45;0.60;;;19.00;99.90;;;;;;4942692;29;20189;-71
2022/09/09 03:27:40;;;;;;;3.28;1.17;;;19.00;99.90;;;;;;4966236;28;20223;-72
2022/09/09 03:30:06;;;;;;;1.55;0.60;;;18.90;99.90;;;;;;4967168;28;20212;-75
2022/09/09 03:32:34;;;;;;;1.63;0.80;;;18.90;99.90;;;;;;4953193;29;20233;-74
2022/09/09 03:35:00;;;;;;;2.53;1.10;;;18.90;99.90;;;;;;4946457;29;20205;-71
2022/09/09 03:37:26;;;;;;;1.15;0.60;;;18.90;99.90;;;;;;4945200;29;20185;-74
2022/09/09 03:39:54;;;;;;;2.15;0.80;;;18.90;99.90;;;;;;4945199;29;20232;-75
2022/09/09 03:42:22;;;;;;;3.72;1.08;;;18.90;99.90;;;;;;4945971;29;20260;-73
2022/09/09 03:44:51;;;;;;;2.80;1.00;;;18.90;99.90;;;;;;4946322;29;20188;-70
2022/09/09 03:47:24;;;;;;;1.65;0.80;;;18.90;99.90;;;;;;4960987;28;20186;-72
2022/09/09 03:49:49;;;;;;;3.05;0.90;;;18.80;99.90;;;;;;4925508;29;20201;-75
2022/09/09 03:52:16;;;;;;;2.88;1.30;;;18.80;99.90;;;;;;4954737;29;20232;-73
2022/09/09 03:54:42;;;;;;;2.13;0.80;;;18.80;99.90;;;;;;4958256;29;20205;-73
2022/09/09 03:57:13;;;;;;;2.85;0.85;;;18.80;99.90;;;;;;4942949;29;20276;-73
2022/09/09 03:59:39;;;;;;;1.80;0.73;;;18.70;99.90;;;;;;4950749;29;20217;-72
2022/09/09 04:02:07;;;;;;;1.58;0.90;;;18.70;99.90;;;;;;4936619;29;20208;-70
2022/09/09 04:04:37;;;;;;;3.10;0.85;;;18.70;99.90;;;;;;4957160;29;20178;-72
2022/09/09 04:07:06;;;;;;;1.67;0.70;;;18.70;99.90;;;;;;4943548;29;20276;-75
2022/09/09 04:09:32;;;;;;;3.95;1.23;;;18.70;99.90;;;;;;4953334;29;20196;-68
2022/09/09 04:12:00;;;;;;;2.50;1.00;;;18.70;99.90;;;;;;4934842;29;20182;-72
2022/09/09 04:14:28;;;;;;;2.88;0.80;;;18.80;99.90;;;;;;4945145;29;20189;-73
2022/09/09 04:16:55;;;;;;;1.98;1.00;;;18.80;99.90;;;;;;4937831;29;20207;-74
2022/09/09 04:19:21;;;;;;;2.63;0.88;;;18.80;99.90;;;;;;4938106;29;20260;-71
2022/09/09 04:21:51;;;;;;;2.13;0.88;;;18.80;99.90;;;;;;4956042;29;20225;-71
2022/09/09 04:24:20;;;;;;;3.50;1.25;;;18.80;99.90;;;;;;4937546;29;20196;-71
2022/09/09 04:26:47;;;;;;;1.80;1.00;;;18.80;99.90;;;;;;4937903;29;20241;-72
2022/09/09 04:29:12;;;;;;;1.67;0.88;;;18.80;99.90;;;;;;4955572;29;20207;-72
2022/09/09 04:31:41;;;;;;;1.20;0.70;;;18.90;99.90;;;;;;4954210;29;20253;-72
2022/09/09 04:34:11;;;;;;;2.80;0.82;;;18.90;99.90;;;;;;4938014;29;20288;-71
2022/09/09 04:36:39;;;;;;;3.50;1.00;;;18.90;99.90;;;;;;4935946;29;20277;-72
2022/09/09 04:39:04;;;;;;;2.22;0.80;;;18.90;99.90;;;;;;4953989;29;20184;-72
2022/09/09 04:41:31;;;;;;;2.83;1.08;;;18.90;99.90;;;;;;4955066;29;20189;-72
2022/09/09 04:44:01;;;;;;;2.40;0.82;;;18.90;99.90;;;;;;4936601;29;20189;-71
2022/09/09 04:46:29;;;;;;;2.50;1.10;;;18.90;99.90;;;;;;4949747;29;20193;-72
2022/09/09 04:48:55;;;;;;;2.60;0.90;;;18.90;99.90;;;;;;4936000;29;20189;-73
2022/09/09 04:51:23;;;;;;;2.53;1.10;;;18.90;99.90;;;;;;4933850;29;20353;-73
2022/09/09 04:53:51;;;;;;;1.50;0.70;;;18.90;99.90;;;;;;4948458;29;20184;-73
2022/09/09 04:56:20;;;;;;;3.22;1.00;;;18.90;99.90;;;;;;4951597;29;20219;-71
2022/09/09 04:58:47;;;;;;;1.98;0.80;;;18.90;99.90;;;;;;4946728;29;20192;-70
2022/09/09 05:01:14;;;;;;;2.83;1.10;;;18.90;99.90;;;;;;4944399;29;20173;-72
2022/09/09 05:03:43;;;;;;;3.10;1.00;;;18.90;99.90;;;;;;4952593;29;20198;-72
2022/09/09 05:06:18;;;;;;;2.50;0.70;;;18.90;99.90;;;;;;4942935;29;20181;-72
2022/09/09 05:08:44;;;;;;;1.63;0.90;;;18.90;99.90;;;;;;4938763;29;20209;-71
2022/09/09 05:11:25;;;;;;;2.33;0.80;;;18.90;99.90;;;;;;4938129;29;20227;-72
2022/09/09 05:13:52;;;;;;;2.05;0.98;;;18.90;99.90;;;;;;4938566;29;20196;-72
2022/09/09 05:16:27;;;;;;;4.30;1.00;;;18.90;99.90;;;;;;4937594;29;20197;-72
2022/09/09 05:18:53;;;;;;;1.77;0.80;;;18.90;99.90;;;;;;4964575;28;20187;-71
2022/09/09 05:21:21;;;;;;;1.10;0.70;;;18.80;99.90;;;;;;4944050;29;20197;-72
2022/09/09 05:23:51;;;;;;;3.05;1.00;;;18.80;99.90;;;;;;4958063;29;20209;-73
2022/09/09 05:26:22;;;;;;;2.13;0.80;;;18.80;99.90;;;;;;4954468;29;20201;-71
2022/09/09 05:28:48;;;;;;;3.13;0.77;;;18.90;99.90;;;;;;4954785;29;20204;-72
2022/09/09 05:31:16;;;;;;;1.85;0.90;;;18.80;99.90;;;;;;4954878;29;20181;-72
2022/09/09 05:33:47;;;;;;;2.25;0.77;;;18.80;99.90;;;;;;4950338;29;20182;-71
2022/09/09 05:36:19;;;;;;;3.30;0.93;;;18.80;99.90;;;;;;4951225;29;20224;-72
2022/09/09 05:38:50;;;;;;;1.88;0.93;;;18.80;99.90;;;;;;4929720;29;20197;-72
2022/09/09 05:41:19;;;;;;;1.98;0.90;;;18.90;99.90;;;;;;4955030;29;20173;-71
2022/09/09 05:43:48;;;;;;;3.63;1.00;;;18.80;99.90;;;;;;4938399;29;20212;-73
2022/09/09 05:46:20;;;;;;;2.03;0.80;;;18.80;99.90;;;;;;4934631;29;20275;-71
2022/09/09 05:48:53;;;;;;;4.45;1.02;;;18.80;99.90;;;;;;4947298;29;20202;-71
2022/09/09 05:51:31;;;;;;;2.88;1.00;;;18.90;99.90;;;;;;4930164;29;20213;-70
2022/09/09 05:54:00;;;;;;;2.85;0.85;;;18.90;99.90;;;;;;4958451;29;20436;-74
2022/09/09 05:56:44;;;;;;;1.92;0.80;;;18.90;99.90;;;;;;4948278;29;20273;-72
2022/09/09 05:59:12;;;;;;;4.53;0.90;;;18.90;99.90;;;;;;4921089;29;20186;-71
2022/09/09 06:01:42;;;;;;;4.05;1.00;;;18.90;99.90;;;;;;4937327;29;20224;-71
2022/09/09 06:04:10;;;;;;;3.20;1.20;;;18.90;99.90;;;;;;4953750;29;20178;-72
2022/09/09 06:06:39;;;;;;;3.05;1.10;;;19.00;99.90;;;;;;4937124;29;20216;-71
2022/09/09 06:09:09;;;;;;;3.05;1.33;;;19.00;99.90;;;;;;4937906;29;20282;-71
2022/09/09 06:11:36;;;;;;;2.78;1.00;;;19.00;99.90;;;;;;4937415;29;20256;-73
2022/09/09 06:14:02;;;;;;;6.70;1.10;;;19.00;99.90;;;;;;4955665;28;20181;-73
2022/09/09 06:16:30;;;;;;;1.60;0.90;;;19.00;99.90;;;;;;4940189;29;20260;-72
2022/09/09 06:18:59;;;;;;;2.15;0.90;;;19.10;99.90;;;;;;4956766;29;20264;-72
2022/09/09 06:21:33;;;;;;;2.42;1.10;;;19.10;99.90;;;;;;4941935;28;20172;-71
2022/09/09 06:24:00;;;;;;;1.77;1.05;;;19.10;99.90;;;;;;4962162;28;20253;-72
2022/09/09 06:26:30;;;;;;;2.03;0.77;;;19.20;99.90;;;;;;4955862;29;20173;-73
2022/09/09 06:28:57;;;;;;;1.42;0.98;;;19.20;99.90;;;;;;4946436;29;20205;-73
2022/09/09 06:31:30;;;;;;;2.22;1.00;;;19.20;99.90;;;;;;4934640;29;20259;-71
2022/09/09 06:33:57;;;;;;;2.60;1.20;;;19.20;99.90;;;;;;4939699;29;20165;-71
2022/09/09 06:36:23;;;;;;;2.75;0.90;;;19.20;99.90;;;;;;4937487;29;20182;-72
2022/09/09 06:38:49;;;;;;;2.25;0.98;;;19.20;99.90;;;;;;4944409;29;20176;-71
2022/09/09 06:41:18;;;;;;;2.65;0.88;;;19.20;99.90;;;;;;4963284;28;20340;-72
2022/09/09 06:43:46;;;;;;;2.75;1.20;;;19.30;99.90;;;;;;4941384;29;20179;-71
2022/09/09 06:46:14;;;;;;;2.38;0.85;;;19.30;99.90;;;;;;4941305;29;20197;-71
2022/09/09 06:48:44;;;;;;;2.42;0.95;;;19.30;99.90;;;;;;4940668;29;20209;-71
2022/09/09 06:51:23;;;;;;;2.55;1.02;;;19.30;99.90;;;;;;4936913;29;20208;-71
2022/09/09 06:53:59;;;;;;;2.53;1.00;;;19.30;99.90;;;;;;4931474;29;20205;-71
2022/09/09 06:56:33;;;;;;;3.10;1.38;;;19.30;99.90;;;;;;4940322;29;20169;-70
2022/09/09 06:59:04;;;;;;;3.50;1.17;;;19.30;99.90;;;;;;4947936;29;20194;-71
2022/09/09 07:01:32;;;;;;;3.00;1.00;;;19.30;99.90;;;;;;4952586;29;20183;-71
2022/09/09 07:03:59;;;;;;;2.88;1.05;;;19.30;99.90;;;;;;4943888;29;20200;-71
2022/09/09 07:06:27;;;;;;;3.45;1.00;;;19.30;99.90;;;;;;4941428;29;20192;-71
2022/09/09 07:09:01;;;;;;;1.42;0.80;;;19.30;99.90;;;;;;4943142;29;20209;-70
2022/09/09 07:11:31;;;;;;;3.47;1.13;;;19.40;99.90;;;;;;4949395;29;20173;-70
2022/09/09 07:13:58;;;;;;;3.05;0.75;;;19.40;99.90;;;;;;4962592;29;20177;-72
2022/09/09 07:16:25;;;;;;;2.55;1.10;;;19.50;99.90;;;;;;4952624;29;20185;-71
2022/09/09 07:19:02;;;;;;;2.83;0.98;;;19.50;99.90;;;;;;4965182;29;20236;-70
2022/09/09 07:21:32;;;;;;;3.95;1.40;;;19.60;99.90;;;;;;4946466;29;20197;-70
2022/09/09 07:23:58;;;;;;;2.88;1.52;;;19.60;99.90;;;;;;4955328;29;20246;-70
2022/09/09 07:26:26;;;;;;;3.97;1.25;;;19.70;99.90;;;;;;4946777;29;20204;-70
2022/09/09 07:28:53;;;;;;;5.03;1.63;;;19.70;99.90;;;;;;4948135;29;20197;-71
2022/09/09 07:31:21;;;;;;;2.33;0.95;;;19.80;99.90;;;;;;4956654;29;20192;-71
2022/09/09 07:33:48;;;;;;;3.22;1.10;;;19.80;99.90;;;;;;4941902;29;20209;-71
2022/09/09 07:36:21;;;;;;;4.07;1.27;;;19.90;99.90;;;;;;4965677;29;20201;-70
2022/09/09 07:38:53;;;;;;;2.75;1.00;;;19.90;99.90;;;;;;4963345;29;20201;-71
2022/09/09 07:41:26;;;;;;;2.90;1.10;;;20.00;99.90;;;;;;4931707;29;20169;-73
2022/09/09 07:43:53;;;;;;;2.08;1.10;;;20.10;99.90;;;;;;4942752;29;20205;-72
2022/09/09 07:46:20;;;;;;;5.03;1.35;;;20.10;99.90;;;;;;4962982;29;20181;-72
2022/09/09 07:48:51;;;;;;;4.22;1.45;;;20.10;99.90;;;;;;4962017;29;20232;-72
2022/09/09 07:51:22;;;;;;;5.28;1.60;;;20.20;99.90;;;;;;4954272;29;20244;-73
2022/09/09 07:53:51;;;;;;;3.17;1.23;;;20.20;99.90;;;;;;4957154;29;20174;-73
2022/09/09 07:56:21;;;;;;;3.45;1.50;;;20.30;99.90;;;;;;4928188;29;20194;-72
2022/09/09 07:58:48;;;;;;;4.55;1.50;;;20.30;99.90;;;;;;4941337;29;20195;-73
2022/09/09 08:01:18;;;;;;;4.00;1.27;;;20.30;99.90;;;;;;4959395;29;20216;-72
2022/09/09 08:03:45;;;;;;;3.35;1.10;;;20.30;99.90;;;;;;4964880;29;20201;-73
2022/09/09 08:06:14;;;;;;;4.63;1.30;;;20.30;99.90;;;;;;4957589;29;20378;-73
2022/09/09 08:08:41;;;;;;;3.05;1.20;;;20.30;99.90;;;;;;4939334;29;20177;-73
2022/09/09 08:11:16;;;;;;;2.70;0.90;;;20.30;99.90;;;;;;4963282;29;20238;-72
2022/09/09 08:13:45;;;;;;;3.53;0.98;;;20.30;99.90;;;;;;4964389;29;20215;-71
2022/09/09 08:16:17;;;;;;;4.25;1.13;;;20.30;99.90;;;;;;4959172;29;20295;-73
2022/09/09 08:18:49;;;;;;;3.55;1.20;;;20.30;99.90;;;;;;4943504;29;20193;-72
2022/09/09 08:21:21;;;;;;;3.42;0.85;;;20.30;99.90;;;;;;4949127;29;20249;-71
2022/09/09 08:23:48;;;;;;;2.92;1.02;;;20.40;99.90;;;;;;4943301;29;20233;-73
2022/09/09 08:26:21;;;;;;;2.95;1.10;;;20.50;99.90;;;;;;4938547;29;20173;-72
2022/09/09 08:28:51;;;;;;;4.68;1.20;;;20.50;99.90;;;;;;4949144;29;20181;-71
2022/09/09 08:31:19;;;;;;;4.05;1.10;;;20.60;99.90;;;;;;4940530;29;20181;-73
2022/09/09 08:33:47;;;;;;;6.53;1.25;;;20.60;99.90;;;;;;4938226;29;20248;-72
2022/09/09 08:36:20;;;;;;;2.70;1.00;;;20.70;99.90;;;;;;4959860;28;20224;-72
2022/09/09 08:38:54;;;;;;;2.13;1.10;;;20.70;99.90;;;;;;4964202;29;20185;-72
2022/09/09 08:41:33;;;;;;;3.53;1.00;;;20.80;99.90;;;;;;4944559;29;20201;-72
2022/09/09 08:44:02;;;;;;;4.75;1.00;;;20.80;99.90;;;;;;4942565;29;20161;-73
2022/09/09 08:47:07;;;;;;;3.78;1.20;;;20.90;99.90;;;;;;4946375;29;20209;-73
2022/09/09 08:49:52;;;;;;;3.58;1.00;;;21.00;99.90;;;;;;4936067;29;20200;-73
2022/09/09 08:53:02;;;;;;;3.20;0.90;;;21.10;99.90;;;;;;4959522;29;20235;-72
2022/09/09 08:55:48;;;;;;;3.08;0.95;;;21.10;99.90;;;;;;4935576;29;20209;-69
2022/09/09 08:58:29;;;;;;;2.33;1.00;;;21.20;99.90;;;;;;4938510;29;20237;-73
2022/09/09 09:01:00;;;;;;;2.00;0.85;;;21.30;99.90;;;;;;4939364;29;20247;-73
2022/09/09 09:03:35;;;;;;;2.65;0.82;;;21.30;99.90;;;;;;4954490;29;20212;-73
2022/09/09 09:06:24;;;;;;;2.97;1.00;;;21.30;99.90;;;;;;4961783;29;20208;-70
2022/09/09 09:09:08;;;;;;;1.95;0.73;;;21.40;99.90;;;;;;4954141;29;20185;-72
2022/09/09 09:11:50;;;;;;;2.35;0.93;;;21.50;99.90;;;;;;4957899;29;20190;-72
2022/09/09 09:14:26;;;;;;;3.70;1.10;;;21.70;99.90;;;;;;4946279;29;20184;-74
2022/09/09 09:17:01;;;;;;;3.90;1.15;;;21.80;99.90;;;;;;4949116;29;20177;-72
2022/09/09 09:19:29;;;;;;;2.50;1.02;;;21.80;99.90;;;;;;4965542;29;20169;-73
2022/09/09 09:22:17;;;;;;;2.28;0.80;;;21.80;99.90;;;;;;4942683;29;20209;-72
2022/09/09 09:24:56;;;;;;;1.83;0.80;;;21.80;99.90;;;;;;4938903;29;20197;-69
2022/09/09 09:27:32;;;;;;;4.07;1.10;;;21.80;99.90;;;;;;4964836;29;20207;-73
2022/09/09 09:30:00;;;;;;;4.18;1.08;;;21.80;99.90;;;;;;4964279;29;20181;-74
2022/09/09 09:32:31;;;;;;;3.67;1.50;;;21.80;99.90;;;;;;4947874;29;20260;-73
2022/09/09 09:35:00;;;;;;;2.90;0.95;;;21.90;99.90;;;;;;4964788;29;20293;-71
2022/09/09 09:37:30;;;;;;;3.08;1.00;;;21.80;99.90;;;;;;4958944;29;20178;-72
2022/09/09 09:39:59;;;;;;;2.85;1.08;;;21.90;99.90;;;;;;4928731;29;20182;-71
2022/09/09 09:42:27;;;;;;;5.70;1.08;;;21.90;99.90;;;;;;4946641;29;20174;-72
2022/09/09 09:44:53;;;;;;;3.85;0.90;;;21.90;99.90;;;;;;4946206;29;20202;-72
2022/09/09 09:47:24;;;;;;;2.45;0.80;;;21.90;99.90;;;;;;4937887;29;20189;-73
2022/09/09 09:49:59;;;;;;;2.25;0.82;;;21.90;99.90;;;;;;4964365;29;20194;-71
2022/09/09 09:52:34;;;;;;;2.88;0.85;;;22.00;99.90;;;;;;4966504;29;20279;-72
2022/09/09 09:55:04;;;;;;;2.28;0.85;;;22.00;99.90;;;;;;4966039;29;20295;-73
2022/09/09 09:57:34;;;;;;;2.58;0.77;;;22.00;99.90;;;;;;4969306;29;20169;-70
2022/09/09 10:00:29;;;;;;;2.40;0.60;;;22.10;99.90;;;;;;4964722;29;20220;-72
2022/09/09 10:02:57;;;;;;;4.38;0.88;;;22.40;99.90;;;;;;4956586;29;20225;-74
2022/09/09 10:05:25;;;;;;;3.30;0.85;;;22.60;99.90;;;;;;4953157;29;20191;-73
2022/09/09 10:08:20;;;;;;;2.80;1.15;;;22.90;99.90;;;;;;4934722;29;20202;-73
2022/09/09 10:10:55;;;;;;;2.75;1.08;;;23.30;99.90;;;;;;4922346;29;20254;-75
2022/09/09 10:13:27;;;;;;;3.70;1.30;;;23.50;99.90;;;;;;4951129;29;20264;-72
2022/09/09 10:15:52;;;;;;;1.98;0.70;;;23.60;99.90;;;;;;4940654;29;20228;-73
2022/09/09 10:18:49;;;;;;;1.33;0.60;;;23.60;99.90;;;;;;4973440;28;20191;-74
2022/09/09 10:21:31;;;;;;;3.72;0.80;;;23.40;99.90;;;;;;4949502;29;20177;-71
2022/09/09 10:24:33;;;;;;;3.30;0.70;;;23.20;99.90;;;;;;4961350;29;20204;-73
2022/09/09 10:27:37;;;;;;;3.60;1.00;;;23.00;99.90;;;;;;4927633;29;20208;-73
2022/09/09 10:30:32;;;;;;;1.45;0.80;;;22.90;99.90;;;;;;4945622;29;20213;-73
2022/09/09 10:33:27;;;;;;;2.35;0.90;;;22.70;99.90;;;;;;4941363;29;20272;-73
2022/09/09 10:36:13;;;;;;;1.25;0.55;;;22.50;99.90;;;;;;4949083;29;20217;-72
2022/09/09 10:38:47;;;;;;;3.63;0.90;;;22.40;99.90;;;;;;4947474;29;20194;-72
2022/09/09 10:41:12;;;;;;;3.08;1.05;;;22.30;99.90;;;;;;4927433;29;20230;-73
2022/09/09 10:44:04;;;;;;;1.77;0.80;;;22.30;99.90;;;;;;4924597;29;20178;-73
2022/09/09 10:46:55;;;;;;;2.55;0.90;;;22.20;99.90;;;;;;4945280;29;20197;-74
2022/09/09 10:49:58;;;;;;;1.67;0.82;;;22.20;99.90;;;;;;4931369;29;20233;-73
2022/09/09 10:52:45;;;;;;;2.03;0.90;;;22.20;99.90;;;;;;4943658;29;20167;-73
2022/09/09 10:55:18;;;;;;;3.08;0.95;;;22.20;99.90;;;;;;4927981;29;20201;-72
2022/09/09 10:57:59;;;;;;;2.35;1.00;;;22.20;99.90;;;;;;4990414;23;20221;-77
2022/09/09 11:00:32;;;;;;;2.63;0.90;;;22.30;99.90;;;;;;4929815;29;20411;-74
2022/09/09 11:03:04;;;;;;;3.58;0.95;;;22.30;99.90;;;;;;4930497;29;20282;-82
2022/09/09 11:05:48;;;;;;;2.10;0.80;;;22.40;99.90;;;;;;4947280;29;20194;-73
2022/09/09 11:08:28;;;;;;;3.88;1.00;;;22.40;99.90;;;;;;4941793;29;20210;-83
2022/09/09 11:11:17;;;;;;;3.50;0.68;;;22.50;99.90;;;;;;4936399;29;20206;-76
2022/09/09 11:13:51;;;;;;;1.35;0.75;;;22.70;99.90;;;;;;4927068;29;20245;-77
2022/09/09 11:16:41;;;;;;;4.35;1.10;;;22.90;99.90;;;;;;4932508;29;20209;-76
2022/09/09 11:19:25;;;;;;;2.03;0.70;;;23.00;99.90;;;;;;4931002;29;20174;-81
2022/09/09 11:21:53;;;;;;;2.15;0.80;;;23.10;99.90;;;;;;4915147;29;20202;-76
2022/09/09 11:24:23;;;;;;;3.00;0.88;;;23.20;99.90;;;;;;4926206;29;20189;-80
2022/09/09 11:26:58;;;;;;;3.72;0.80;;;23.30;99.90;;;;;;4946108;29;20217;-80
2022/09/09 11:29:49;;;;;;;3.05;0.90;;;23.30;99.90;;;;;;4944463;29;20193;-78
2022/09/09 11:32:24;;;;;;;4.50;0.95;;;23.50;99.90;;;;;;4933232;29;20414;-70
2022/09/09 11:35:27;;;;;;;3.92;1.10;;;23.70;99.90;;;;;;4930463;29;20216;-77
2022/09/09 11:38:32;;;;;;;3.05;1.00;;;23.80;99.90;;;;;;4923702;29;20192;-78
2022/09/09 11:41:09;;;;;;;3.22;0.80;;;23.70;99.90;;;;;;4934135;29;20173;-75
2022/09/09 11:43:39;;;;;;;1.88;0.90;;;23.70;99.90;;;;;;4912458;29;20199;-81
2022/09/09 11:46:07;;;;;;;2.72;0.95;;;23.60;99.90;;;;;;4946072;29;20218;-81
2022/09/09 11:48:36;;;;;;;2.58;0.90;;;23.60;99.90;;;;;;4955537;29;20233;-80
2022/09/09 11:51:09;;;;;;;1.92;1.02;;;23.60;99.90;;;;;;4930010;29;20213;-76
2022/09/09 11:53:49;;;;;;;1.83;0.65;;;23.60;99.90;;;;;;4929794;29;20182;-81
2022/09/09 11:56:27;;;;;;;1.40;0.65;;;23.60;99.90;;;;;;4945491;29;20309;-80
2022/09/09 11:59:22;;;;;;;2.70;0.70;;;23.60;99.90;;;;;;4945372;29;20193;-82
2022/09/09 12:02:14;;;;;;;1.77;0.70;;;23.60;99.90;;;;;;4915801;29;20213;-81
2022/09/09 12:05:12;;;;;;;1.63;0.60;;;23.60;99.90;;;;;;4940296;29;20178;-78
2022/09/09 12:07:53;;;;;;;2.30;0.73;;;23.50;99.90;;;;;;4945443;29;20237;-75
2022/09/09 12:10:38;;;;;;;3.97;0.95;;;23.60;99.90;;;;;;4945817;29;20170;-77
2022/09/09 12:13:22;;;;;;;2.75;1.08;;;23.50;99.90;;;;;;4939596;29;20221;-78
2022/09/09 12:15:51;;;;;;;1.50;1.00;;;23.60;99.90;;;;;;4930055;29;20194;-79
2022/09/09 12:18:26;;;;;;;2.53;0.73;;;23.60;99.90;;;;;;4926440;29;20193;-82
2022/09/09 12:21:01;;;;;;;1.30;0.60;;;23.50;99.90;;;;;;4946672;29;20286;-81
2022/09/09 12:23:55;;;;;;;1.35;0.60;;;23.50;99.90;;;;;;4945228;29;20173;-82
2022/09/09 12:26:30;;;;;;;2.33;0.77;;;23.50;99.90;;;;;;4923867;29;20284;-82
2022/09/09 12:28:57;;;;;;;1.58;0.65;;;23.40;99.90;;;;;;4945444;29;20177;-83
2022/09/09 12:31:48;;;;;;;3.70;1.25;;;23.40;99.90;;;;;;4944697;29;20234;-83
2022/09/09 12:34:43;;;;;;;1.55;0.75;;;23.40;99.90;;;;;;4929483;29;20201;-79
2022/09/09 12:37:38;;;;;;;1.60;0.73;;;23.30;99.90;;;;;;4945488;29;20194;-79
2022/09/09 12:40:28;;;;;;;3.15;0.80;;;23.30;99.90;;;;;;4945248;29;20182;-79
2022/09/09 12:42:55;;;;;;;2.58;0.80;;;23.30;99.90;;;;;;4924411;29;20229;-78
2022/09/09 12:45:31;;;;;;;3.05;0.65;;;23.20;99.90;;;;;;4929393;29;20182;-79
2022/09/09 12:48:03;;;;;;;1.75;0.70;;;23.20;99.90;;;;;;4931100;29;20205;-81
2022/09/09 12:50:32;;;;;;;1.70;0.80;;;23.20;99.90;;;;;;4948135;29;20198;-77
2022/09/09 12:53:15;;;;;;;2.58;0.90;;;23.20;99.90;;;;;;4929519;29;20182;-77
2022/09/09 12:55:54;;;;;;;1.90;0.90;;;23.20;99.90;;;;;;4947397;29;20198;-79
2022/09/09 12:58:20;;;;;;;2.13;0.90;;;23.20;99.90;;;;;;4931876;29;20174;-80
2022/09/09 13:00:56;;;;;;;2.63;0.82;;;23.20;99.90;;;;;;4949920;29;20197;-74
2022/09/09 13:03:22;;;;;;;3.38;1.20;;;23.20;99.90;;;;;;4921046;29;20166;-75
2022/09/09 13:05:48;;;;;;;2.88;0.85;;;23.10;99.90;;;;;;4929315;29;20216;-80
2022/09/09 13:08:20;;;;;;;1.48;0.82;;;23.00;99.90;;;;;;4926324;29;20245;-77
2022/09/09 13:11:03;;;;;;;3.47;0.90;;;23.00;99.90;;;;;;4932835;29;20205;-81
2022/09/09 13:13:53;;;;;;;2.88;0.80;;;22.90;99.90;;;;;;4931460;29;20193;-76
2022/09/09 13:16:31;;;;;;;2.10;0.73;;;22.90;99.90;;;;;;4934839;29;20222;-78
2022/09/09 13:18:58;;;;;;;3.88;0.90;;;22.90;99.90;;;;;;4931918;29;20221;-76
2022/09/09 13:21:40;;;;;;;2.42;0.60;;;22.90;99.90;;;;;;4936644;29;20277;-81
2022/09/09 13:24:33;;;;;;;1.88;0.55;;;22.90;99.90;;;;;;4933225;29;20250;-80
2022/09/09 13:27:05;;;;;;;3.08;0.70;;;22.90;99.90;;;;;;4949732;29;20178;-78